Terminal Aerodrome Forecast
Issued by NWS Charleston, WV

Current Version | Previous Version | Text Only | Print | Product List | Glossary Off
Versions: 1 2 3 4 5 6 7 8 9 10 11 12 13 14 15 16 17 18 19 20 21 22 23 24 25 26 27 28 29

000
FTUS41 KRLX 211700 RRA
TAFPKB
TAF
KPKB 211742Z 2118/2218 31010G18KT P6SM OVC015
     FM212000 31010G18KT P6SM OVC025
     FM212300 32009KT P6SM BKN025
     FM221500 34011G17KT P6SM BKN025=

USA.gov is the U.S. government's official web portal to all federal, state and local government web resources and services.